createdAt,value
2023-04-02T00:00:04.737Z,9.60
2023-04-02T00:01:04.681Z,9.70
2023-04-02T00:02:04.723Z,9.58
2023-04-02T00:03:04.742Z,9.59
2023-04-02T00:04:04.818Z,9.65
2023-04-02T00:05:04.646Z,9.59
2023-04-02T00:06:04.871Z,9.59
2023-04-02T00:07:04.667Z,9.59
2023-04-02T00:08:04.642Z,9.59
2023-04-02T00:09:04.659Z,9.62
2023-04-02T00:10:04.642Z,9.59
2023-04-02T00:11:04.607Z,9.67
2023-04-02T00:12:04.652Z,9.65
2023-04-02T00:13:04.610Z,9.65
2023-04-02T00:14:04.600Z,9.62
2023-04-02T00:15:04.599Z,9.58
2023-04-02T00:16:04.680Z,9.73
2023-04-02T00:17:04.604Z,9.65
2023-04-02T00:18:04.611Z,9.73
2023-04-02T00:19:04.601Z,9.65
2023-04-02T00:20:04.572Z,9.58
2023-04-02T00:21:04.550Z,9.58
2023-04-02T00:22:04.550Z,9.62
2023-04-02T00:23:04.538Z,9.67
2023-04-02T00:24:04.592Z,9.62
2023-04-02T00:25:04.534Z,9.55
2023-04-02T00:26:04.529Z,9.65
2023-04-02T00:27:04.507Z,9.56
2023-04-02T00:28:04.511Z,9.53
2023-04-02T00:29:04.515Z,9.62
2023-04-02T00:30:04.574Z,9.58
2023-04-02T00:31:04.462Z,9.59
2023-04-02T00:32:04.493Z,9.58
2023-04-02T00:33:04.508Z,9.58
2023-04-02T00:34:04.485Z,9.56
2023-04-02T00:35:04.470Z,9.62
2023-04-02T00:36:04.534Z,9.56
2023-04-02T00:37:04.443Z,9.70
2023-04-02T00:38:04.449Z,9.67
2023-04-02T00:39:04.422Z,9.73
2023-04-02T00:40:04.418Z,9.65
2023-04-02T00:41:04.411Z,9.70
2023-04-02T00:42:04.575Z,9.68
2023-04-02T00:43:04.430Z,9.71
2023-04-02T00:44:04.397Z,9.70
2023-04-02T00:45:04.437Z,9.74
2023-04-02T00:46:04.449Z,9.67
2023-04-02T00:47:04.402Z,9.59
2023-04-02T00:48:04.510Z,9.68
2023-04-02T00:49:04.383Z,9.73
2023-04-02T00:50:04.380Z,9.62
2023-04-02T00:51:04.343Z,9.59
2023-04-02T00:52:04.389Z,9.71
2023-04-02T00:53:04.365Z,9.55
2023-04-02T00:54:04.433Z,9.58
2023-04-02T00:55:04.341Z,9.58
2023-04-02T00:56:04.326Z,9.60
2023-04-02T00:57:04.348Z,9.58
2023-04-02T00:58:04.331Z,9.60
2023-04-02T00:59:04.306Z,9.56
2023-04-02T01:00:04.346Z,9.62
2023-04-02T01:01:04.366Z,9.67
2023-04-02T01:02:04.292Z,9.59
2023-04-02T01:03:04.457Z,9.58
2023-04-02T01:04:04.293Z,9.60
2023-04-02T01:05:04.261Z,9.62
2023-04-02T01:06:04.817Z,9.58
2023-04-02T01:07:04.265Z,9.70
2023-04-02T01:08:04.267Z,9.55
2023-04-02T01:09:04.419Z,9.60
2023-04-02T01:10:04.278Z,9.63
2023-04-02T01:11:04.255Z,9.59
2023-04-02T01:12:04.328Z,9.62
2023-04-02T01:13:04.204Z,9.56
2023-04-02T01:14:04.201Z,9.59
2023-04-02T01:15:04.241Z,9.55
2023-04-02T01:16:04.320Z,9.58
2023-04-02T01:17:04.254Z,9.55
2023-04-02T01:18:04.362Z,9.53
2023-04-02T01:19:04.205Z,9.49
2023-04-02T01:20:04.180Z,9.58
2023-04-02T01:21:04.211Z,9.52
2023-04-02T01:22:04.150Z,9.53
2023-04-02T01:23:04.223Z,9.48
2023-04-02T01:24:04.378Z,9.53
2023-04-02T01:25:04.194Z,9.55
2023-04-02T01:26:04.137Z,9.58
2023-04-02T01:27:04.114Z,9.53
2023-04-02T01:28:04.118Z,9.49
2023-04-02T01:29:04.260Z,9.48
2023-04-02T01:30:04.208Z,9.50
2023-04-02T01:31:04.106Z,9.53
2023-04-02T01:32:04.195Z,9.50
2023-04-02T01:33:04.123Z,9.58
2023-04-02T01:34:04.085Z,9.63
2023-04-02T01:35:04.075Z,9.59
2023-04-02T01:36:04.128Z,9.59
2023-04-02T01:37:04.049Z,9.63
2023-04-02T01:38:04.034Z,9.55
2023-04-02T01:39:04.037Z,9.58
2023-04-02T01:40:04.017Z,9.65
2023-04-02T01:41:04.038Z,9.62
2023-04-02T01:42:04.060Z,9.63
2023-04-02T01:43:04.002Z,9.65
2023-04-02T01:44:03.979Z,9.60
2023-04-02T01:45:03.988Z,9.71
2023-04-02T01:46:03.990Z,9.56
2023-04-02T01:47:03.932Z,9.40
2023-04-02T01:48:04.033Z,9.40
2023-04-02T01:49:04.074Z,9.32
2023-04-02T01:50:03.945Z,9.41
2023-04-02T01:51:03.947Z,9.44
2023-04-02T01:52:03.936Z,9.45
2023-04-02T01:53:03.926Z,9.48
2023-04-02T01:54:03.988Z,9.35
2023-04-02T01:55:03.916Z,9.40
2023-04-02T01:56:03.895Z,9.42
2023-04-02T01:57:03.891Z,9.32
2023-04-02T01:58:03.894Z,9.16
2023-04-02T01:59:03.881Z,9.01
2023-04-02T02:00:03.912Z,8.91
2023-04-02T02:01:03.887Z,9.03
2023-04-02T02:02:03.925Z,9.01
2023-04-02T02:03:03.891Z,9.01
2023-04-02T02:04:03.883Z,8.94
2023-04-02T02:05:03.833Z,8.89
2023-04-02T02:06:03.908Z,8.88
2023-04-02T02:07:03.801Z,8.80
2023-04-02T02:08:03.811Z,8.75
2023-04-02T02:09:03.822Z,8.76
2023-04-02T02:10:03.793Z,8.67
2023-04-02T02:11:03.782Z,8.63
2023-04-02T02:12:04.266Z,8.58
2023-04-02T02:13:03.800Z,8.57
2023-04-02T02:14:03.754Z,8.55
2023-04-02T02:15:03.736Z,8.43
2023-04-02T02:16:03.791Z,8.47
2023-04-02T02:17:03.734Z,8.45
2023-04-02T02:18:03.814Z,8.50
2023-04-02T02:19:03.761Z,8.45
2023-04-02T02:20:03.742Z,8.43
2023-04-02T02:21:03.733Z,8.45
2023-04-02T02:22:03.717Z,8.42
2023-04-02T02:23:03.726Z,8.39
2023-04-02T02:24:03.782Z,8.31
2023-04-02T02:25:03.738Z,8.40
2023-04-02T02:26:03.703Z,8.34
2023-04-02T02:27:03.680Z,8.31
2023-04-02T02:28:03.664Z,8.31
2023-04-02T02:29:03.702Z,8.28
2023-04-02T02:30:03.695Z,8.29
2023-04-02T02:31:03.683Z,8.22
2023-04-02T02:32:03.684Z,8.25
2023-04-02T02:33:03.690Z,8.22
2023-04-02T02:34:03.716Z,8.29
2023-04-02T02:35:03.615Z,8.22
2023-04-02T02:36:03.724Z,8.18
2023-04-02T02:37:03.618Z,8.18
2023-04-02T02:38:03.625Z,8.14
2023-04-02T02:39:03.599Z,8.09
2023-04-02T02:40:03.573Z,8.13
2023-04-02T02:41:03.585Z,8.13
2023-04-02T02:42:03.627Z,8.14
2023-04-02T02:43:03.576Z,8.12
2023-04-02T02:44:03.575Z,8.03
2023-04-02T02:45:03.561Z,8.12
2023-04-02T02:46:03.656Z,8.10
2023-04-02T02:47:03.544Z,8.14
2023-04-02T02:48:03.590Z,7.99
2023-04-02T02:49:03.495Z,7.96
2023-04-02T02:50:03.524Z,7.96
2023-04-02T02:51:03.523Z,7.99
2023-04-02T02:52:03.502Z,8.00
2023-04-02T02:53:03.492Z,7.96
2023-04-02T02:54:03.549Z,7.92
2023-04-02T02:55:03.496Z,7.88
2023-04-02T02:56:03.476Z,7.94
2023-04-02T02:57:03.499Z,7.92
2023-04-02T02:58:03.453Z,8.03
2023-04-02T02:59:03.473Z,7.91
2023-04-02T03:00:03.480Z,7.82
2023-04-02T03:01:03.450Z,7.95
2023-04-02T03:02:03.419Z,7.88
2023-04-02T03:03:03.576Z,7.86
2023-04-02T03:04:03.566Z,7.85
2023-04-02T03:05:03.399Z,7.88
2023-04-02T03:06:03.435Z,7.73
2023-04-02T03:07:03.391Z,7.70
2023-04-02T03:08:03.374Z,7.70
2023-04-02T03:09:03.382Z,7.73
2023-04-02T03:10:03.374Z,7.73
2023-04-02T03:11:03.354Z,7.69
2023-04-02T03:12:03.417Z,7.73
2023-04-02T03:13:03.345Z,7.76
2023-04-02T03:14:03.334Z,7.70
2023-04-02T03:15:04.231Z,7.66
2023-04-02T03:16:03.386Z,7.62
2023-04-02T03:17:03.318Z,7.57
2023-04-02T03:18:03.604Z,7.52
2023-04-02T03:19:03.314Z,7.60
2023-04-02T03:20:03.312Z,7.55
2023-04-02T03:21:03.282Z,7.54
2023-04-02T03:22:03.280Z,7.55
2023-04-02T03:23:03.317Z,7.48
2023-04-02T03:24:03.340Z,7.51
2023-04-02T03:25:03.321Z,7.47
2023-04-02T03:26:03.257Z,7.45
2023-04-02T03:27:03.308Z,7.48
2023-04-02T03:28:03.237Z,7.54
2023-04-02T03:29:03.238Z,7.44
2023-04-02T03:30:03.300Z,7.44
2023-04-02T03:31:03.264Z,7.41
2023-04-02T03:32:03.214Z,7.48
2023-04-02T03:33:03.256Z,7.41
2023-04-02T03:34:03.197Z,7.45
2023-04-02T03:35:03.219Z,7.51
2023-04-02T03:36:03.351Z,7.48
2023-04-02T03:37:03.183Z,7.45
2023-04-02T03:38:03.180Z,7.44
2023-04-02T03:39:03.176Z,7.44
2023-04-02T03:40:03.166Z,7.41
2023-04-02T03:41:03.155Z,7.42
2023-04-02T03:42:03.204Z,7.36
2023-04-02T03:43:03.128Z,7.37
2023-04-02T03:44:03.147Z,7.34
2023-04-02T03:45:03.136Z,7.36
2023-04-02T03:46:03.121Z,7.36
2023-04-02T03:47:03.119Z,7.27
2023-04-02T03:48:03.232Z,7.24
2023-04-02T03:49:03.098Z,7.26
2023-04-02T03:50:03.067Z,7.34
2023-04-02T03:51:03.079Z,7.21
2023-04-02T03:52:03.165Z,7.26
2023-04-02T03:53:03.067Z,7.26
2023-04-02T03:54:03.104Z,7.11
2023-04-02T03:55:02.998Z,7.12
2023-04-02T03:56:03.214Z,7.23
2023-04-02T03:57:03.090Z,7.14
2023-04-02T03:58:03.008Z,7.15
2023-04-02T03:59:03.015Z,7.19
2023-04-02T04:00:03.078Z,7.21
2023-04-02T04:01:03.004Z,7.15
2023-04-02T04:02:03.008Z,7.11
2023-04-02T04:03:03.058Z,7.12
2023-04-02T04:04:03.016Z,7.16
2023-04-02T04:05:02.981Z,7.18
2023-04-02T04:06:03.018Z,7.09
2023-04-02T04:07:02.938Z,7.15
2023-04-02T04:08:02.975Z,7.12
2023-04-02T04:09:02.991Z,7.16
2023-04-02T04:10:02.939Z,7.05
2023-04-02T04:11:02.943Z,7.15
2023-04-02T04:12:02.951Z,7.08
2023-04-02T04:13:02.921Z,7.11
2023-04-02T04:14:02.903Z,6.99
2023-04-02T04:15:02.930Z,6.96
2023-04-02T04:16:02.911Z,6.90
2023-04-02T04:17:02.853Z,6.97
2023-04-02T04:18:02.931Z,7.00
2023-04-02T04:19:02.861Z,6.90
2023-04-02T04:20:02.877Z,6.89
2023-04-02T04:21:02.857Z,6.93
2023-04-02T04:22:02.853Z,6.87
2023-04-02T04:23:02.843Z,6.82
2023-04-02T04:24:02.917Z,6.86
2023-04-02T04:25:02.838Z,6.90
2023-04-02T04:26:02.827Z,6.90
2023-04-02T04:27:02.818Z,6.89
2023-04-02T04:28:02.823Z,6.89
2023-04-02T04:29:02.807Z,6.89
2023-04-02T04:30:02.843Z,6.78
2023-04-02T04:31:02.779Z,6.79
2023-04-02T04:32:02.812Z,6.75
2023-04-02T04:33:02.800Z,6.79
2023-04-02T04:34:02.797Z,6.72
2023-04-02T04:35:02.837Z,6.60
2023-04-02T04:36:02.839Z,6.69
2023-04-02T04:37:02.736Z,6.68
2023-04-02T04:38:02.699Z,6.60
2023-04-02T04:39:02.719Z,6.69
2023-04-02T04:40:02.725Z,6.61
2023-04-02T04:41:02.732Z,6.69
2023-04-02T04:42:02.761Z,6.71
2023-04-02T04:43:02.692Z,6.57
2023-04-02T04:44:02.686Z,6.58
2023-04-02T04:45:02.723Z,6.63
2023-04-02T04:46:02.684Z,6.60
2023-04-02T04:47:02.695Z,6.61
2023-04-02T04:48:02.788Z,6.60
2023-04-02T04:49:02.635Z,6.45
2023-04-02T04:50:02.623Z,6.45
2023-04-02T04:51:02.648Z,6.46
2023-04-02T04:52:02.624Z,6.39
2023-04-02T04:53:02.618Z,6.43
2023-04-02T04:54:02.653Z,6.40
2023-04-02T04:55:02.605Z,6.46
2023-04-02T04:56:16.012Z,6.51
2023-04-02T04:57:03.639Z,6.50
2023-04-02T04:58:02.616Z,6.45
2023-04-02T04:59:02.583Z,6.43
2023-04-02T05:00:02.589Z,6.50
2023-04-02T05:01:02.685Z,6.40
2023-04-02T05:02:02.564Z,6.42
2023-04-02T05:03:02.557Z,6.39
2023-04-02T05:04:02.548Z,6.35
2023-04-02T05:05:02.787Z,6.39
2023-04-02T05:06:02.591Z,6.42
2023-04-02T05:07:02.528Z,6.38
2023-04-02T05:08:02.502Z,6.50
2023-04-02T05:09:02.497Z,6.35
2023-04-02T05:10:02.487Z,6.40
2023-04-02T05:11:02.495Z,6.40
2023-04-02T05:12:02.511Z,6.36
2023-04-02T05:13:02.465Z,6.32
2023-04-02T05:14:02.470Z,6.21
2023-04-02T05:15:02.482Z,6.36
2023-04-02T05:16:02.559Z,6.35
2023-04-02T05:17:02.501Z,6.36
2023-04-02T05:18:02.523Z,6.28
2023-04-02T05:19:02.439Z,6.25
2023-04-02T05:20:02.406Z,6.25
2023-04-02T05:21:02.405Z,6.20
2023-04-02T05:22:02.469Z,6.19
2023-04-02T05:23:02.403Z,6.16
2023-04-02T05:24:02.645Z,6.21
2023-04-02T05:25:02.422Z,6.14
2023-04-02T05:26:02.379Z,6.17
2023-04-02T05:27:02.405Z,6.17
2023-04-02T05:28:02.362Z,6.17
2023-04-02T05:29:02.413Z,6.25
2023-04-02T05:30:02.487Z,6.14
2023-04-02T05:31:02.423Z,6.16
2023-04-02T05:32:02.329Z,6.19
2023-04-02T05:33:02.354Z,6.21
2023-04-02T05:34:02.325Z,6.13
2023-04-02T05:35:02.302Z,6.25
2023-04-02T05:36:02.512Z,6.25
2023-04-02T05:37:02.875Z,6.17
2023-04-02T05:38:02.333Z,6.11
2023-04-02T05:39:02.304Z,6.21
2023-04-02T05:40:02.290Z,6.19
2023-04-02T05:41:02.334Z,6.20
2023-04-02T05:42:02.523Z,6.17
2023-04-02T05:43:02.280Z,6.13
2023-04-02T05:44:02.293Z,6.13
2023-04-02T05:45:02.280Z,6.13
2023-04-02T05:46:02.260Z,6.05
2023-04-02T05:47:02.261Z,6.17
2023-04-02T05:48:02.393Z,6.08
2023-04-02T05:49:02.272Z,6.05
2023-04-02T05:50:02.219Z,6.03
2023-04-02T05:51:02.216Z,6.02
2023-04-02T05:52:02.238Z,6.08
2023-04-02T05:53:02.197Z,6.14
2023-04-02T05:54:02.218Z,6.06
2023-04-02T05:55:02.193Z,6.08
2023-04-02T05:56:02.161Z,6.13
2023-04-02T05:57:02.174Z,6.08
2023-04-02T05:58:29.280Z,6.11
2023-04-02T05:59:03.201Z,6.06
2023-04-02T06:00:02.146Z,6.08
2023-04-02T06:01:02.177Z,6.11
2023-04-02T06:02:02.171Z,6.06
2023-04-02T06:03:02.178Z,6.10
2023-04-02T06:04:02.199Z,6.03
2023-04-02T06:05:02.172Z,5.96
2023-04-02T06:06:02.123Z,5.99
2023-04-02T06:07:02.106Z,6.02
2023-04-02T06:08:02.106Z,6.02
2023-04-02T06:09:02.118Z,5.98
2023-04-02T06:10:02.071Z,5.93
2023-04-02T06:11:02.136Z,5.98
2023-04-02T06:12:02.089Z,5.92
2023-04-02T06:13:02.046Z,5.99
2023-04-02T06:14:02.049Z,5.88
2023-04-02T06:15:02.060Z,5.99
2023-04-02T06:16:02.042Z,6.03
2023-04-02T06:17:02.140Z,6.05
2023-04-02T06:18:02.093Z,6.08
2023-04-02T06:19:02.000Z,5.93
2023-04-02T06:20:02.018Z,5.87
2023-04-02T06:21:01.984Z,5.87
2023-04-02T06:22:02.034Z,5.92
2023-04-02T06:23:02.052Z,5.92
2023-04-02T06:24:01.979Z,5.95
2023-04-02T06:25:01.980Z,5.84
2023-04-02T06:26:01.976Z,5.90
2023-04-02T06:27:01.965Z,5.87
2023-04-02T06:28:01.952Z,5.87
2023-04-02T06:29:02.011Z,5.84
2023-04-02T06:30:01.944Z,5.93
2023-04-02T06:31:01.951Z,5.93
2023-04-02T06:32:01.935Z,5.87
2023-04-02T06:33:01.971Z,5.80
2023-04-02T06:34:01.925Z,5.88
2023-04-02T06:35:01.974Z,5.75
2023-04-02T06:36:01.948Z,5.80
2023-04-02T06:37:01.898Z,5.83
2023-04-02T06:38:01.905Z,5.78
2023-04-02T06:39:01.879Z,5.75
2023-04-02T06:40:01.870Z,5.80
2023-04-02T06:41:01.907Z,5.83
2023-04-02T06:42:01.877Z,5.73
2023-04-02T06:43:01.831Z,5.78
2023-04-02T06:44:01.829Z,5.81
2023-04-02T06:45:01.846Z,5.69
2023-04-02T06:46:01.849Z,5.70
2023-04-02T06:47:01.938Z,5.78
2023-04-02T06:48:01.806Z,5.80
2023-04-02T06:49:01.813Z,5.77
2023-04-02T06:50:01.843Z,5.84
2023-04-02T06:51:01.819Z,5.74
2023-04-02T06:52:01.806Z,5.83
2023-04-02T06:53:01.847Z,5.78
2023-04-02T06:54:01.784Z,5.70
2023-04-02T06:55:01.821Z,5.67
2023-04-02T06:56:01.783Z,5.67
2023-04-02T06:57:01.805Z,5.69
2023-04-02T06:58:01.760Z,5.66
2023-04-02T06:59:01.755Z,5.59
2023-04-02T07:00:01.755Z,5.56
2023-04-02T07:01:01.727Z,5.62
2023-04-02T07:02:01.763Z,5.51
2023-04-02T07:03:01.718Z,5.48
2023-04-02T07:04:01.685Z,5.55
2023-04-02T07:05:01.784Z,5.73
2023-04-02T07:06:01.753Z,5.60
2023-04-02T07:07:01.830Z,5.55
2023-04-02T07:08:01.907Z,5.56
2023-04-02T07:09:01.762Z,5.45
2023-04-02T07:10:01.759Z,5.59
2023-04-02T07:11:01.711Z,5.48
2023-04-02T07:12:01.663Z,5.55
2023-04-02T07:13:01.645Z,5.51
2023-04-02T07:14:01.650Z,5.49
2023-04-02T07:15:01.616Z,5.48
2023-04-02T07:16:01.681Z,5.52
2023-04-02T07:17:01.670Z,5.48
2023-04-02T07:18:01.727Z,5.49
2023-04-02T07:19:01.616Z,5.47
2023-04-02T07:20:01.594Z,5.42
2023-04-02T07:21:01.591Z,5.32
2023-04-02T07:22:01.601Z,5.40
2023-04-02T07:23:01.598Z,5.44
2023-04-02T07:24:01.609Z,5.49
2023-04-02T07:25:01.623Z,5.30
2023-04-02T07:26:01.552Z,5.38
2023-04-02T07:27:01.560Z,5.24
2023-04-02T07:28:01.554Z,5.32
2023-04-02T07:29:02.064Z,5.27
2023-04-02T07:30:01.528Z,5.38
2023-04-02T07:31:01.701Z,5.27
2023-04-02T07:32:01.548Z,5.29
2023-04-02T07:33:01.492Z,5.23
2023-04-02T07:34:01.501Z,5.23
2023-04-02T07:35:01.546Z,5.24
2023-04-02T07:36:01.510Z,5.29
2023-04-02T07:37:01.473Z,5.32
2023-04-02T07:38:01.460Z,5.29
2023-04-02T07:39:01.491Z,5.32
2023-04-02T07:40:01.445Z,5.30
2023-04-02T07:41:01.519Z,5.24
2023-04-02T07:42:01.470Z,5.24
2023-04-02T07:43:01.439Z,5.17
2023-04-02T07:44:01.430Z,5.17
2023-04-02T07:45:02.389Z,5.15
2023-04-02T07:46:01.392Z,5.26
2023-04-02T07:47:01.573Z,5.14
2023-04-02T07:48:01.486Z,5.11
2023-04-02T07:49:01.388Z,5.22
2023-04-02T07:50:01.386Z,5.27
2023-04-02T07:51:01.370Z,5.29
2023-04-02T07:52:01.397Z,5.20
2023-04-02T07:53:01.450Z,5.23
2023-04-02T07:54:01.343Z,5.15
2023-04-02T07:55:01.367Z,5.27
2023-04-02T07:56:01.423Z,5.24
2023-04-02T07:57:01.389Z,5.20
2023-04-02T07:58:01.321Z,5.20
2023-04-02T07:59:01.363Z,5.20
2023-04-02T08:00:01.357Z,5.24
2023-04-02T08:01:01.420Z,5.15
2023-04-02T08:02:01.335Z,5.11
2023-04-02T08:03:01.409Z,5.20
2023-04-02T08:04:01.310Z,5.11
2023-04-02T08:05:01.317Z,5.32
2023-04-02T08:06:01.290Z,5.32
2023-04-02T08:07:01.288Z,5.40
2023-04-02T08:08:01.264Z,5.37
2023-04-02T08:09:01.292Z,5.30
2023-04-02T08:10:01.354Z,5.33
2023-04-02T08:11:01.303Z,5.37
2023-04-02T08:12:01.254Z,5.32
2023-04-02T08:13:01.220Z,5.37
2023-04-02T08:14:01.248Z,5.41
2023-04-02T08:15:01.259Z,5.35
2023-04-02T08:16:01.206Z,5.44
2023-04-02T08:17:01.278Z,5.33
2023-04-02T08:18:01.245Z,5.09
2023-04-02T08:19:01.173Z,5.09
2023-04-02T08:20:01.209Z,5.20
2023-04-02T08:21:01.181Z,5.26
2023-04-02T08:22:01.168Z,5.38
2023-04-02T08:23:01.232Z,5.29
2023-04-02T08:24:01.190Z,5.24
2023-04-02T08:25:01.152Z,5.27
2023-04-02T08:26:01.149Z,5.27
2023-04-02T08:27:01.125Z,5.32
2023-04-02T08:28:01.120Z,5.27
2023-04-02T08:29:01.185Z,5.23
2023-04-02T08:30:01.135Z,5.15
2023-04-02T08:31:01.173Z,5.05
2023-04-02T08:32:01.127Z,5.14
2023-04-02T08:33:09.641Z,5.19
2023-04-02T08:34:01.074Z,5.15
2023-04-02T08:35:01.474Z,5.15
2023-04-02T08:36:01.083Z,5.24
2023-04-02T08:37:01.049Z,5.14
2023-04-02T08:38:01.048Z,5.15
2023-04-02T08:39:01.391Z,5.17
2023-04-02T08:40:01.074Z,5.14
2023-04-02T08:41:01.103Z,5.24
2023-04-02T08:42:01.042Z,5.29
2023-04-02T08:43:01.033Z,5.30
2023-04-02T08:44:01.017Z,5.11
2023-04-02T08:45:03.937Z,5.24
2023-04-02T08:46:02.111Z,5.15
2023-04-02T08:47:01.017Z,5.19
2023-04-02T08:48:01.056Z,5.12
2023-04-02T08:49:01.008Z,4.96
2023-04-02T08:50:00.987Z,4.99
2023-04-02T08:51:00.961Z,5.02
2023-04-02T08:52:01.016Z,5.09
2023-04-02T08:53:00.951Z,5.22
2023-04-02T08:54:00.950Z,5.24
2023-04-02T08:55:00.949Z,5.20
2023-04-02T08:56:00.959Z,5.22
2023-04-02T08:57:00.935Z,5.26
2023-04-02T08:58:00.960Z,5.35
2023-04-02T08:59:00.899Z,5.38
2023-04-02T09:00:00.902Z,5.37
2023-04-02T09:01:00.895Z,5.26
2023-04-02T09:02:00.960Z,5.22
2023-04-02T09:03:00.945Z,5.30
2023-04-02T09:04:00.957Z,5.29
2023-04-02T09:05:00.920Z,5.38
2023-04-02T09:06:00.847Z,5.33
2023-04-02T09:07:00.880Z,5.38
2023-04-02T09:08:00.849Z,5.38
2023-04-02T09:09:01.915Z,5.08
2023-04-02T09:10:02.527Z,5.04
2023-04-02T09:11:00.843Z,5.24
2023-04-02T09:12:00.884Z,5.24
2023-04-02T09:13:00.844Z,5.26
2023-04-02T09:14:00.838Z,5.44
2023-04-02T09:15:00.814Z,5.38
2023-04-02T09:16:00.861Z,5.33
2023-04-02T09:17:00.794Z,5.17
2023-04-02T09:18:00.921Z,5.12
2023-04-02T09:19:00.810Z,5.20
2023-04-02T09:20:00.759Z,5.26
2023-04-02T09:21:00.784Z,5.33
2023-04-02T09:22:00.797Z,5.35
2023-04-02T09:23:00.918Z,5.22
2023-04-02T09:24:01.539Z,5.27
2023-04-02T09:25:00.778Z,5.22
2023-04-02T09:26:04.625Z,5.32
2023-04-02T09:27:00.702Z,5.47
2023-04-02T09:28:00.749Z,5.44
2023-04-02T09:29:00.721Z,5.35
2023-04-02T09:30:00.692Z,5.08
2023-04-02T09:31:00.707Z,5.06
2023-04-02T09:32:00.782Z,5.19
2023-04-02T09:33:00.694Z,5.27
2023-04-02T09:34:00.707Z,5.22
2023-04-02T09:35:00.670Z,5.23
2023-04-02T09:36:00.682Z,5.30
2023-04-02T09:37:00.643Z,5.35
2023-04-02T09:38:00.634Z,5.26
2023-04-02T09:39:00.617Z,5.35
2023-04-02T09:40:11.085Z,5.24
2023-04-02T09:41:00.629Z,5.17
2023-04-02T09:42:05.890Z,5.35
2023-04-02T09:43:01.598Z,5.27
2023-04-02T09:44:00.581Z,5.09
2023-04-02T09:45:00.597Z,5.14
2023-04-02T09:46:00.613Z,5.15
2023-04-02T09:47:00.691Z,5.23
2023-04-02T09:48:00.608Z,5.35
2023-04-02T09:49:00.568Z,5.38
2023-04-02T09:50:00.549Z,5.33
2023-04-02T09:51:00.569Z,5.35
2023-04-02T09:52:00.567Z,5.30
2023-04-02T09:53:00.534Z,5.35
2023-04-02T09:54:00.534Z,5.33
2023-04-02T09:55:00.537Z,5.19
2023-04-02T09:56:00.505Z,5.20
2023-04-02T09:57:00.574Z,5.15
2023-04-02T09:58:02.101Z,5.29
2023-04-02T09:59:00.526Z,5.23
2023-04-02T10:00:00.486Z,5.27
2023-04-02T10:01:00.527Z,5.30
2023-04-02T10:02:00.458Z,5.40
2023-04-02T10:03:00.515Z,5.47
2023-04-02T10:04:00.554Z,5.47
2023-04-02T10:05:00.449Z,5.65
2023-04-02T10:06:00.444Z,5.73
2023-04-02T10:07:00.451Z,5.49
2023-04-02T10:08:00.448Z,5.08
2023-04-02T10:09:00.395Z,5.12
2023-04-02T10:10:00.462Z,5.06
2023-04-02T10:11:00.403Z,5.20
2023-04-02T10:12:00.395Z,5.37
2023-04-02T10:13:00.386Z,5.38
2023-04-02T10:14:00.371Z,5.45
2023-04-02T10:15:00.380Z,5.32
2023-04-02T10:16:00.537Z,5.32
2023-04-02T10:17:00.419Z,5.52
2023-04-02T10:18:00.422Z,5.24
2023-04-02T10:19:00.337Z,5.29
2023-04-02T10:20:00.362Z,5.33
2023-04-02T10:21:00.353Z,5.49
2023-04-02T10:22:00.399Z,5.56
2023-04-02T10:23:00.316Z,5.47
2023-04-02T10:24:00.341Z,5.47
2023-04-02T10:25:00.343Z,5.59
2023-04-02T10:26:00.336Z,5.56
2023-04-02T10:27:00.300Z,5.59
2023-04-02T10:28:00.323Z,5.65
2023-04-02T10:29:00.298Z,5.63
2023-04-02T10:30:00.277Z,5.44
2023-04-02T10:31:00.279Z,5.30
2023-04-02T10:32:00.279Z,5.23
2023-04-02T10:33:00.355Z,5.45
2023-04-02T10:34:00.309Z,5.38
2023-04-02T10:35:00.267Z,5.40
2023-04-02T10:36:00.297Z,5.41
2023-04-02T10:37:00.223Z,5.52
2023-04-02T10:38:00.243Z,5.58
2023-04-02T10:39:00.253Z,5.45
2023-04-02T10:40:00.621Z,5.37
2023-04-02T10:41:00.187Z,5.12
2023-04-02T10:42:00.214Z,5.01
2023-04-02T10:43:00.228Z,5.17
2023-04-02T10:44:12.736Z,5.17
2023-04-02T10:45:01.218Z,5.23
2023-04-02T10:46:00.265Z,5.37
2023-04-02T10:47:00.152Z,5.49
2023-04-02T10:48:00.192Z,5.56
2023-04-02T10:49:00.135Z,5.67
2023-04-02T10:50:00.204Z,5.56
2023-04-02T10:51:00.180Z,5.56
2023-04-02T10:52:00.155Z,5.45
2023-04-02T10:53:00.138Z,5.60
2023-04-02T10:54:00.176Z,5.65
2023-04-02T10:55:00.111Z,5.81
2023-04-02T10:56:00.150Z,5.80
2023-04-02T10:57:00.215Z,5.81
2023-04-02T10:58:00.108Z,5.78
2023-04-02T10:59:00.091Z,5.84
2023-04-02T11:00:00.131Z,5.87
2023-04-02T11:01:00.104Z,5.67
2023-04-02T11:02:00.176Z,5.67
2023-04-02T11:03:00.148Z,5.51
2023-04-02T11:04:00.143Z,5.27
2023-04-02T11:05:01.779Z,5.37
2023-04-02T11:06:00.022Z,5.51
2023-04-02T11:07:11.294Z,5.65
2023-04-02T11:08:01.077Z,5.83
2023-04-02T11:09:00.004Z,5.65
2023-04-02T11:10:00.091Z,5.78
2023-04-02T11:11:00.000Z,5.87
2023-04-02T11:12:00.988Z,5.95
2023-04-02T11:12:59.988Z,6.02
2023-04-02T11:14:00.009Z,6.16
2023-04-02T11:14:59.978Z,6.10
2023-04-02T11:15:59.973Z,6.21
2023-04-02T11:16:59.962Z,6.16
2023-04-02T11:18:00.017Z,6.13
2023-04-02T11:18:59.950Z,5.90
2023-04-02T11:19:59.957Z,5.47
2023-04-02T11:20:59.926Z,5.60
2023-04-02T11:22:01.849Z,5.78
2023-04-02T11:23:00.008Z,5.84
2023-04-02T11:23:59.951Z,5.85
2023-04-02T11:24:59.906Z,5.93
2023-04-02T11:25:59.940Z,5.67
2023-04-02T11:26:59.874Z,5.84
2023-04-02T11:27:59.882Z,5.77
2023-04-02T11:28:59.957Z,5.65
2023-04-02T11:29:59.864Z,5.83
2023-04-02T11:30:59.909Z,5.75
2023-04-02T11:31:59.935Z,5.90
2023-04-02T11:32:59.881Z,5.84
2023-04-02T11:33:59.829Z,5.74
2023-04-02T11:35:05.859Z,5.42
2023-04-02T11:36:00.855Z,5.52
2023-04-02T11:36:59.796Z,5.58
2023-04-02T11:37:59.873Z,5.69
2023-04-02T11:39:10.866Z,5.65
2023-04-02T11:40:00.815Z,5.83
2023-04-02T11:40:59.782Z,5.67
2023-04-02T11:41:59.775Z,5.77
2023-04-02T11:42:59.790Z,5.66
2023-04-02T11:44:00.182Z,5.69
2023-04-02T11:44:59.768Z,5.73
2023-04-02T11:45:59.775Z,5.80
2023-04-02T11:46:59.829Z,5.77
2023-04-02T11:47:59.835Z,5.96
2023-04-02T11:48:59.729Z,6.01
2023-04-02T11:49:59.778Z,5.83
2023-04-02T11:50:59.765Z,5.92
2023-04-02T11:52:10.949Z,5.65
2023-04-02T11:53:00.695Z,5.44
2023-04-02T11:53:59.724Z,5.67
2023-04-02T11:54:59.715Z,6.02
2023-04-02T11:55:59.726Z,5.99
2023-04-02T11:56:59.763Z,5.93
2023-04-02T11:57:59.693Z,6.16
2023-04-02T11:58:59.688Z,5.93
2023-04-02T11:59:59.639Z,6.19
2023-04-02T12:00:59.647Z,6.32
2023-04-02T12:01:59.848Z,6.46
2023-04-02T12:02:59.758Z,6.48
2023-04-02T12:03:59.643Z,6.19
2023-04-02T12:04:59.675Z,6.51
2023-04-02T12:06:00.052Z,6.64
2023-04-02T12:06:59.604Z,6.33
2023-04-02T12:07:59.707Z,6.27
2023-04-02T12:08:59.592Z,6.39
2023-04-02T12:09:59.685Z,6.35
2023-04-02T12:10:59.625Z,6.48
2023-04-02T12:12:02.650Z,6.36
2023-04-02T12:12:59.704Z,6.33
2023-04-02T12:13:59.605Z,6.43
2023-04-02T12:14:59.535Z,6.55
2023-04-02T12:15:59.575Z,6.42
2023-04-02T12:16:59.613Z,6.28
2023-04-02T12:17:59.529Z,6.36
2023-04-02T12:18:59.528Z,6.45
2023-04-02T12:19:59.565Z,6.50
2023-04-02T12:20:59.500Z,6.20
2023-04-02T12:21:59.507Z,6.13
2023-04-02T12:22:59.484Z,6.11
2023-04-02T12:24:00.097Z,6.24
2023-04-02T12:24:59.490Z,5.87
2023-04-02T12:25:59.490Z,5.90
2023-04-02T12:26:59.458Z,5.93
2023-04-02T12:27:59.468Z,6.05
2023-04-02T12:28:59.459Z,6.13
2023-04-02T12:29:59.625Z,6.25
2023-04-02T12:30:59.461Z,6.20
2023-04-02T12:31:59.441Z,6.16
2023-04-02T12:32:59.475Z,6.21
2023-04-02T12:33:59.473Z,6.19
2023-04-02T12:34:59.419Z,6.13
2023-04-02T12:35:59.512Z,6.08
2023-04-02T12:36:59.424Z,6.17
2023-04-02T12:37:59.398Z,6.08
2023-04-02T12:38:59.413Z,6.05
2023-04-02T12:39:59.370Z,6.14
2023-04-02T12:40:59.338Z,6.03
2023-04-02T12:41:59.933Z,6.08
2023-04-02T12:42:59.344Z,6.17
2023-04-02T12:43:59.848Z,6.08
2023-04-02T12:44:59.321Z,6.16
2023-04-02T12:45:59.356Z,6.24
2023-04-02T12:46:59.338Z,6.28
2023-04-02T12:47:59.385Z,6.27
2023-04-02T12:48:59.364Z,6.39
2023-04-02T12:49:59.359Z,6.46
2023-04-02T12:50:59.367Z,6.32
2023-04-02T12:51:59.383Z,6.16
2023-04-02T12:52:59.271Z,6.14
2023-04-02T12:53:59.327Z,6.08
2023-04-02T12:54:59.268Z,6.16
2023-04-02T12:55:59.321Z,6.16
2023-04-02T12:56:59.276Z,6.11
2023-04-02T12:57:59.254Z,6.13
2023-04-02T12:58:59.253Z,5.99
2023-04-02T12:59:59.208Z,6.01
2023-04-02T13:00:59.286Z,6.03
2023-04-02T13:01:59.281Z,6.10
2023-04-02T13:02:59.342Z,6.06
2023-04-02T13:03:59.322Z,5.85
2023-04-02T13:04:59.241Z,5.96
2023-04-02T13:05:59.186Z,5.95
2023-04-02T13:06:59.187Z,6.05
2023-04-02T13:07:59.484Z,5.99
2023-04-02T13:08:59.172Z,6.11
2023-04-02T13:09:59.166Z,6.10
2023-04-02T13:10:59.159Z,5.88
2023-04-02T13:11:59.177Z,5.74
2023-04-02T13:12:59.129Z,5.78
2023-04-02T13:13:59.172Z,5.87
2023-04-02T13:14:59.193Z,5.90
2023-04-02T13:15:59.227Z,5.93
2023-04-02T13:16:59.243Z,5.80
2023-04-02T13:17:59.211Z,5.60